sensor_id;sensor_type;location;lat;lon;timestamp;P1;durP1;ratioP1;P2;durP2;ratioP2
54261;SDS011;40174;52.364;6.452;2022-11-06T00:00:36;6.78;;;3.47;;
54261;SDS011;40174;52.364;6.452;2022-11-06T00:03:03;8.57;;;2.97;;
54261;SDS011;40174;52.364;6.452;2022-11-06T00:05:31;9.75;;;3.22;;
54261;SDS011;40174;52.364;6.452;2022-11-06T00:10:51;8.88;;;2.72;;
54261;SDS011;40174;52.364;6.452;2022-11-06T00:13:17;10.52;;;3.42;;
54261;SDS011;40174;52.364;6.452;2022-11-06T00:15:44;7.10;;;2.97;;
54261;SDS011;40174;52.364;6.452;2022-11-06T00:18:11;10.02;;;3.55;;
54261;SDS011;40174;52.364;6.452;2022-11-06T00:20:39;7.55;;;3.70;;
54261;SDS011;40174;52.364;6.452;2022-11-06T00:23:05;11.93;;;3.45;;
54261;SDS011;40174;52.364;6.452;2022-11-06T00:25:32;9.57;;;3.22;;
54261;SDS011;40174;52.364;6.452;2022-11-06T00:27:59;6.40;;;2.83;;
54261;SDS011;40174;52.364;6.452;2022-11-06T00:30:25;8.25;;;3.25;;
54261;SDS011;40174;52.364;6.452;2022-11-06T00:32:52;9.90;;;3.35;;
54261;SDS011;40174;52.364;6.452;2022-11-06T00:35:18;8.52;;;2.70;;
54261;SDS011;40174;52.364;6.452;2022-11-06T00:37:46;9.35;;;2.83;;
54261;SDS011;40174;52.364;6.452;2022-11-06T00:40:13;12.80;;;3.05;;
54261;SDS011;40174;52.364;6.452;2022-11-06T00:42:39;6.68;;;3.13;;
54261;SDS011;40174;52.364;6.452;2022-11-06T00:45:07;5.80;;;2.80;;
54261;SDS011;40174;52.364;6.452;2022-11-06T00:47:34;6.95;;;2.95;;
54261;SDS011;40174;52.364;6.452;2022-11-06T00:50:01;6.82;;;3.42;;
54261;SDS011;40174;52.364;6.452;2022-11-06T00:52:27;8.70;;;2.45;;
54261;SDS011;40174;52.364;6.452;2022-11-06T00:54:55;7.97;;;2.58;;
54261;SDS011;40174;52.364;6.452;2022-11-06T00:57:22;8.60;;;2.88;;
54261;SDS011;40174;52.364;6.452;2022-11-06T00:59:48;10.32;;;3.25;;
54261;SDS011;40174;52.364;6.452;2022-11-06T01:02:15;7.60;;;2.60;;
54261;SDS011;40174;52.364;6.452;2022-11-06T01:04:43;8.52;;;2.50;;
54261;SDS011;40174;52.364;6.452;2022-11-06T01:07:10;10.10;;;2.65;;
54261;SDS011;40174;52.364;6.452;2022-11-06T01:09:36;7.10;;;3.05;;
54261;SDS011;40174;52.364;6.452;2022-11-06T01:12:05;8.48;;;3.17;;
54261;SDS011;40174;52.364;6.452;2022-11-06T01:14:32;10.18;;;2.78;;
54261;SDS011;40174;52.364;6.452;2022-11-06T01:16:58;5.28;;;2.50;;
54261;SDS011;40174;52.364;6.452;2022-11-06T01:19:25;7.35;;;2.50;;
54261;SDS011;40174;52.364;6.452;2022-11-06T01:21:52;9.75;;;3.05;;
54261;SDS011;40174;52.364;6.452;2022-11-06T01:24:19;7.95;;;2.90;;
54261;SDS011;40174;52.364;6.452;2022-11-06T01:26:48;9.02;;;2.50;;
54261;SDS011;40174;52.364;6.452;2022-11-06T01:29:17;7.45;;;2.83;;
54261;SDS011;40174;52.364;6.452;2022-11-06T01:31:45;5.07;;;2.05;;
54261;SDS011;40174;52.364;6.452;2022-11-06T01:34:13;7.68;;;2.97;;
54261;SDS011;40174;52.364;6.452;2022-11-06T01:36:41;9.32;;;2.92;;
54261;SDS011;40174;52.364;6.452;2022-11-06T01:39:09;5.22;;;2.35;;
54261;SDS011;40174;52.364;6.452;2022-11-06T01:41:38;8.75;;;2.13;;
54261;SDS011;40174;52.364;6.452;2022-11-06T01:47:17;10.98;;;2.80;;
54261;SDS011;40174;52.364;6.452;2022-11-06T01:49:46;6.63;;;2.55;;
54261;SDS011;40174;52.364;6.452;2022-11-06T01:52:15;5.15;;;2.10;;
54261;SDS011;40174;52.364;6.452;2022-11-06T01:54:43;7.93;;;2.67;;
54261;SDS011;40174;52.364;6.452;2022-11-06T01:57:14;5.00;;;2.53;;
54261;SDS011;40174;52.364;6.452;2022-11-06T01:59:41;6.80;;;2.20;;
54261;SDS011;40174;52.364;6.452;2022-11-06T02:02:10;8.10;;;3.05;;
54261;SDS011;40174;52.364;6.452;2022-11-06T02:04:40;4.32;;;2.47;;
54261;SDS011;40174;52.364;6.452;2022-11-06T02:07:08;7.80;;;2.40;;
54261;SDS011;40174;52.364;6.452;2022-11-06T02:09:36;5.25;;;2.08;;
54261;SDS011;40174;52.364;6.452;2022-11-06T02:12:04;8.18;;;2.67;;
54261;SDS011;40174;52.364;6.452;2022-11-06T02:14:47;7.00;;;2.38;;
54261;SDS011;40174;52.364;6.452;2022-11-06T02:17:27;4.78;;;2.20;;
54261;SDS011;40174;52.364;6.452;2022-11-06T02:20:10;6.20;;;2.27;;
54261;SDS011;40174;52.364;6.452;2022-11-06T02:22:51;6.43;;;2.45;;
54261;SDS011;40174;52.364;6.452;2022-11-06T02:25:35;6.32;;;2.20;;
54261;SDS011;40174;52.364;6.452;2022-11-06T02:28:13;5.82;;;1.80;;
54261;SDS011;40174;52.364;6.452;2022-11-06T02:30:43;8.48;;;2.28;;
54261;SDS011;40174;52.364;6.452;2022-11-06T02:33:13;5.75;;;2.00;;
54261;SDS011;40174;52.364;6.452;2022-11-06T02:43:18;6.90;;;2.00;;
54261;SDS011;40174;52.364;6.452;2022-11-06T02:45:48;4.25;;;1.98;;
54261;SDS011;40174;52.364;6.452;2022-11-06T02:48:19;4.60;;;1.90;;
54261;SDS011;40174;52.364;6.452;2022-11-06T02:50:49;6.35;;;1.90;;
54261;SDS011;40174;52.364;6.452;2022-11-06T02:53:20;6.93;;;2.25;;
54261;SDS011;40174;52.364;6.452;2022-11-06T02:55:50;3.95;;;1.55;;
54261;SDS011;40174;52.364;6.452;2022-11-06T02:58:22;6.65;;;1.98;;
54261;SDS011;40174;52.364;6.452;2022-11-06T03:00:52;5.93;;;1.88;;
54261;SDS011;40174;52.364;6.452;2022-11-06T03:03:24;4.00;;;1.63;;
54261;SDS011;40174;52.364;6.452;2022-11-06T03:05:54;6.80;;;2.10;;
54261;SDS011;40174;52.364;6.452;2022-11-06T03:08:25;8.80;;;2.22;;
54261;SDS011;40174;52.364;6.452;2022-11-06T03:10:57;8.93;;;2.20;;
54261;SDS011;40174;52.364;6.452;2022-11-06T03:13:33;7.60;;;1.85;;
54261;SDS011;40174;52.364;6.452;2022-11-06T03:16:10;5.20;;;1.50;;
54261;SDS011;40174;52.364;6.452;2022-11-06T03:18:49;8.55;;;2.10;;
54261;SDS011;40174;52.364;6.452;2022-11-06T03:21:24;6.85;;;1.90;;
54261;SDS011;40174;52.364;6.452;2022-11-06T03:23:56;8.23;;;1.48;;
54261;SDS011;40174;52.364;6.452;2022-11-06T03:26:29;7.97;;;2.25;;
54261;SDS011;40174;52.364;6.452;2022-11-06T03:29:00;8.48;;;1.80;;
54261;SDS011;40174;52.364;6.452;2022-11-06T03:31:39;3.70;;;1.30;;
54261;SDS011;40174;52.364;6.452;2022-11-06T03:34:13;9.90;;;1.70;;
54261;SDS011;40174;52.364;6.452;2022-11-06T03:36:49;8.50;;;1.90;;
54261;SDS011;40174;52.364;6.452;2022-11-06T03:39:22;4.88;;;1.48;;
54261;SDS011;40174;52.364;6.452;2022-11-06T03:41:55;3.97;;;1.55;;
54261;SDS011;40174;52.364;6.452;2022-11-06T03:44:28;5.80;;;1.88;;
54261;SDS011;40174;52.364;6.452;2022-11-06T03:47:00;5.57;;;1.80;;
54261;SDS011;40174;52.364;6.452;2022-11-06T03:49:32;6.32;;;1.52;;
54261;SDS011;40174;52.364;6.452;2022-11-06T03:52:04;5.13;;;1.75;;
54261;SDS011;40174;52.364;6.452;2022-11-06T03:54:37;7.30;;;1.65;;
54261;SDS011;40174;52.364;6.452;2022-11-06T03:57:08;6.78;;;1.60;;
54261;SDS011;40174;52.364;6.452;2022-11-06T03:59:40;6.03;;;1.67;;
54261;SDS011;40174;52.364;6.452;2022-11-06T04:02:11;5.57;;;1.60;;
54261;SDS011;40174;52.364;6.452;2022-11-06T04:04:42;7.28;;;1.67;;
54261;SDS011;40174;52.364;6.452;2022-11-06T04:07:13;8.55;;;1.38;;
54261;SDS011;40174;52.364;6.452;2022-11-06T04:09:45;4.80;;;1.42;;
54261;SDS011;40174;52.364;6.452;2022-11-06T04:12:47;2.85;;;1.38;;
54261;SDS011;40174;52.364;6.452;2022-11-06T04:15:39;6.45;;;1.60;;
54261;SDS011;40174;52.364;6.452;2022-11-06T04:18:11;5.65;;;1.40;;
54261;SDS011;40174;52.364;6.452;2022-11-06T04:20:41;3.55;;;1.33;;
54261;SDS011;40174;52.364;6.452;2022-11-06T04:23:37;7.57;;;1.80;;
54261;SDS011;40174;52.364;6.452;2022-11-06T04:26:32;3.63;;;1.55;;
54261;SDS011;40174;52.364;6.452;2022-11-06T04:29:07;6.85;;;1.75;;
54261;SDS011;40174;52.364;6.452;2022-11-06T04:31:44;4.45;;;1.48;;
54261;SDS011;40174;52.364;6.452;2022-11-06T04:34:21;5.65;;;1.55;;
54261;SDS011;40174;52.364;6.452;2022-11-06T04:36:58;8.68;;;1.90;;
54261;SDS011;40174;52.364;6.452;2022-11-06T04:39:33;2.83;;;1.30;;
54261;SDS011;40174;52.364;6.452;2022-11-06T04:42:08;8.38;;;2.08;;
54261;SDS011;40174;52.364;6.452;2022-11-06T04:44:42;4.80;;;1.30;;
54261;SDS011;40174;52.364;6.452;2022-11-06T04:47:13;4.22;;;1.23;;
54261;SDS011;40174;52.364;6.452;2022-11-06T04:49:42;5.35;;;1.08;;
54261;SDS011;40174;52.364;6.452;2022-11-06T04:52:10;3.63;;;1.50;;
54261;SDS011;40174;52.364;6.452;2022-11-06T04:54:41;4.88;;;1.25;;
54261;SDS011;40174;52.364;6.452;2022-11-06T04:57:07;7.00;;;1.63;;
54261;SDS011;40174;52.364;6.452;2022-11-06T04:59:34;5.00;;;1.50;;
54261;SDS011;40174;52.364;6.452;2022-11-06T05:02:01;5.30;;;1.42;;
54261;SDS011;40174;52.364;6.452;2022-11-06T05:04:29;7.75;;;1.38;;
54261;SDS011;40174;52.364;6.452;2022-11-06T05:06:56;8.88;;;1.73;;
54261;SDS011;40174;52.364;6.452;2022-11-06T05:09:23;4.07;;;1.15;;
54261;SDS011;40174;52.364;6.452;2022-11-06T05:11:49;9.38;;;1.40;;
54261;SDS011;40174;52.364;6.452;2022-11-06T05:14:16;6.18;;;1.35;;
54261;SDS011;40174;52.364;6.452;2022-11-06T05:16:43;5.22;;;1.38;;
54261;SDS011;40174;52.364;6.452;2022-11-06T05:19:09;6.25;;;1.00;;
54261;SDS011;40174;52.364;6.452;2022-11-06T05:21:37;6.57;;;1.45;;
54261;SDS011;40174;52.364;6.452;2022-11-06T05:24:22;3.47;;;1.13;;
54261;SDS011;40174;52.364;6.452;2022-11-06T05:26:48;5.45;;;1.20;;
54261;SDS011;40174;52.364;6.452;2022-11-06T05:29:15;6.85;;;2.25;;
54261;SDS011;40174;52.364;6.452;2022-11-06T05:31:41;5.03;;;0.93;;
54261;SDS011;40174;52.364;6.452;2022-11-06T05:34:08;4.45;;;1.33;;
54261;SDS011;40174;52.364;6.452;2022-11-06T05:36:34;5.47;;;1.10;;
54261;SDS011;40174;52.364;6.452;2022-11-06T05:39:02;8.20;;;1.40;;
54261;SDS011;40174;52.364;6.452;2022-11-06T05:41:29;6.75;;;1.40;;
54261;SDS011;40174;52.364;6.452;2022-11-06T05:43:55;6.30;;;1.40;;
54261;SDS011;40174;52.364;6.452;2022-11-06T05:46:22;5.28;;;1.30;;
54261;SDS011;40174;52.364;6.452;2022-11-06T05:48:48;4.38;;;1.15;;
54261;SDS011;40174;52.364;6.452;2022-11-06T05:51:15;4.78;;;1.40;;
54261;SDS011;40174;52.364;6.452;2022-11-06T05:53:42;6.03;;;1.50;;
54261;SDS011;40174;52.364;6.452;2022-11-06T05:56:10;5.25;;;1.10;;
54261;SDS011;40174;52.364;6.452;2022-11-06T05:58:36;4.05;;;1.08;;
54261;SDS011;40174;52.364;6.452;2022-11-06T06:01:03;7.10;;;1.45;;
54261;SDS011;40174;52.364;6.452;2022-11-06T06:03:30;7.72;;;1.30;;
54261;SDS011;40174;52.364;6.452;2022-11-06T06:05:57;5.20;;;1.25;;
54261;SDS011;40174;52.364;6.452;2022-11-06T06:08:23;5.80;;;1.10;;
54261;SDS011;40174;52.364;6.452;2022-11-06T06:10:50;6.85;;;1.85;;
54261;SDS011;40174;52.364;6.452;2022-11-06T06:13:18;2.85;;;0.95;;
54261;SDS011;40174;52.364;6.452;2022-11-06T06:15:44;3.45;;;1.30;;
54261;SDS011;40174;52.364;6.452;2022-11-06T06:18:11;5.07;;;1.52;;
54261;SDS011;40174;52.364;6.452;2022-11-06T06:20:38;5.18;;;1.30;;
54261;SDS011;40174;52.364;6.452;2022-11-06T06:23:05;6.55;;;1.50;;
54261;SDS011;40174;52.364;6.452;2022-11-06T06:25:31;2.75;;;1.30;;
54261;SDS011;40174;52.364;6.452;2022-11-06T06:27:58;7.75;;;1.33;;
54261;SDS011;40174;52.364;6.452;2022-11-06T06:30:26;6.38;;;1.30;;
54261;SDS011;40174;52.364;6.452;2022-11-06T06:32:53;2.50;;;1.17;;
54261;SDS011;40174;52.364;6.452;2022-11-06T06:35:19;6.32;;;1.20;;
54261;SDS011;40174;52.364;6.452;2022-11-06T06:37:50;4.10;;;1.08;;
54261;SDS011;40174;52.364;6.452;2022-11-06T06:40:18;7.32;;;1.27;;
54261;SDS011;40174;52.364;6.452;2022-11-06T06:42:45;5.03;;;1.50;;
54261;SDS011;40174;52.364;6.452;2022-11-06T06:45:11;9.65;;;1.55;;
54261;SDS011;40174;52.364;6.452;2022-11-06T06:47:40;11.57;;;1.77;;
54261;SDS011;40174;52.364;6.452;2022-11-06T06:50:07;3.05;;;1.23;;
54261;SDS011;40174;52.364;6.452;2022-11-06T06:52:34;5.65;;;1.40;;
54261;SDS011;40174;52.364;6.452;2022-11-06T06:55:01;4.93;;;2.00;;
54261;SDS011;40174;52.364;6.452;2022-11-06T06:57:27;6.75;;;1.23;;
54261;SDS011;40174;52.364;6.452;2022-11-06T06:59:54;7.05;;;0.93;;
54261;SDS011;40174;52.364;6.452;2022-11-06T07:02:20;4.13;;;1.05;;
54261;SDS011;40174;52.364;6.452;2022-11-06T07:04:48;2.97;;;1.15;;
54261;SDS011;40174;52.364;6.452;2022-11-06T07:07:15;5.65;;;1.30;;
54261;SDS011;40174;52.364;6.452;2022-11-06T07:09:41;5.93;;;1.20;;
54261;SDS011;40174;52.364;6.452;2022-11-06T07:12:08;6.18;;;1.52;;
54261;SDS011;40174;52.364;6.452;2022-11-06T07:14:35;3.63;;;0.98;;
54261;SDS011;40174;52.364;6.452;2022-11-06T07:17:01;3.58;;;1.30;;
54261;SDS011;40174;52.364;6.452;2022-11-06T07:19:28;4.57;;;1.73;;
54261;SDS011;40174;52.364;6.452;2022-11-06T07:21:56;4.18;;;1.35;;
54261;SDS011;40174;52.364;6.452;2022-11-06T07:24:22;6.70;;;1.00;;
54261;SDS011;40174;52.364;6.452;2022-11-06T07:26:49;3.92;;;0.90;;
54261;SDS011;40174;52.364;6.452;2022-11-06T07:29:15;6.07;;;1.50;;
54261;SDS011;40174;52.364;6.452;2022-11-06T07:31:42;5.55;;;1.17;;
54261;SDS011;40174;52.364;6.452;2022-11-06T07:34:08;5.57;;;1.40;;
54261;SDS011;40174;52.364;6.452;2022-11-06T07:36:35;2.67;;;1.05;;
54261;SDS011;40174;52.364;6.452;2022-11-06T07:39:03;1.88;;;1.08;;
54261;SDS011;40174;52.364;6.452;2022-11-06T07:41:30;6.10;;;1.13;;
54261;SDS011;40174;52.364;6.452;2022-11-06T07:43:56;4.45;;;1.20;;
54261;SDS011;40174;52.364;6.452;2022-11-06T07:46:23;5.95;;;1.17;;
54261;SDS011;40174;52.364;6.452;2022-11-06T07:48:49;7.38;;;1.30;;
54261;SDS011;40174;52.364;6.452;2022-11-06T07:51:16;5.82;;;1.30;;
54261;SDS011;40174;52.364;6.452;2022-11-06T07:53:43;8.88;;;1.38;;
54261;SDS011;40174;52.364;6.452;2022-11-06T07:56:10;5.30;;;1.00;;
54261;SDS011;40174;52.364;6.452;2022-11-06T07:58:37;5.25;;;1.13;;
54261;SDS011;40174;52.364;6.452;2022-11-06T08:01:04;3.33;;;0.80;;
54261;SDS011;40174;52.364;6.452;2022-11-06T08:03:31;6.78;;;1.95;;
54261;SDS011;40174;52.364;6.452;2022-11-06T08:05:58;3.42;;;1.00;;
54261;SDS011;40174;52.364;6.452;2022-11-06T08:08:29;5.07;;;1.10;;
54261;SDS011;40174;52.364;6.452;2022-11-06T08:10:59;4.28;;;0.90;;
54261;SDS011;40174;52.364;6.452;2022-11-06T08:13:28;4.07;;;1.10;;
54261;SDS011;40174;52.364;6.452;2022-11-06T08:15:54;5.72;;;1.10;;
54261;SDS011;40174;52.364;6.452;2022-11-06T08:18:21;4.07;;;0.88;;
54261;SDS011;40174;52.364;6.452;2022-11-06T08:20:51;4.00;;;1.20;;
54261;SDS011;40174;52.364;6.452;2022-11-06T08:23:18;8.10;;;1.58;;
54261;SDS011;40174;52.364;6.452;2022-11-06T08:25:44;3.63;;;1.00;;
54261;SDS011;40174;52.364;6.452;2022-11-06T08:28:11;2.70;;;0.80;;
54261;SDS011;40174;52.364;6.452;2022-11-06T08:30:39;4.63;;;1.60;;
54261;SDS011;40174;52.364;6.452;2022-11-06T08:33:06;2.97;;;1.10;;
54261;SDS011;40174;52.364;6.452;2022-11-06T08:35:33;3.45;;;1.20;;
54261;SDS011;40174;52.364;6.452;2022-11-06T08:38:00;7.70;;;0.90;;
54261;SDS011;40174;52.364;6.452;2022-11-06T08:40:28;5.47;;;0.80;;
54261;SDS011;40174;52.364;6.452;2022-11-06T08:42:57;3.42;;;0.73;;
54261;SDS011;40174;52.364;6.452;2022-11-06T08:45:25;2.88;;;1.08;;
54261;SDS011;40174;52.364;6.452;2022-11-06T08:47:54;3.95;;;0.98;;
54261;SDS011;40174;52.364;6.452;2022-11-06T08:50:20;5.75;;;1.00;;
54261;SDS011;40174;52.364;6.452;2022-11-06T08:52:50;3.47;;;1.17;;
54261;SDS011;40174;52.364;6.452;2022-11-06T08:55:17;3.78;;;0.95;;
54261;SDS011;40174;52.364;6.452;2022-11-06T08:57:46;8.48;;;1.10;;
54261;SDS011;40174;52.364;6.452;2022-11-06T09:00:13;5.05;;;1.30;;
54261;SDS011;40174;52.364;6.452;2022-11-06T09:02:43;2.90;;;1.00;;
54261;SDS011;40174;52.364;6.452;2022-11-06T09:05:13;5.07;;;0.90;;
54261;SDS011;40174;52.364;6.452;2022-11-06T09:07:41;4.30;;;0.90;;
54261;SDS011;40174;52.364;6.452;2022-11-06T09:10:08;5.38;;;0.93;;
54261;SDS011;40174;52.364;6.452;2022-11-06T09:12:38;3.28;;;1.00;;
54261;SDS011;40174;52.364;6.452;2022-11-06T09:15:05;4.20;;;0.90;;
54261;SDS011;40174;52.364;6.452;2022-11-06T09:17:32;5.22;;;1.08;;
54261;SDS011;40174;52.364;6.452;2022-11-06T09:20:04;1.90;;;0.80;;
54261;SDS011;40174;52.364;6.452;2022-11-06T09:22:37;5.78;;;1.23;;
54261;SDS011;40174;52.364;6.452;2022-11-06T09:25:04;8.27;;;1.23;;
54261;SDS011;40174;52.364;6.452;2022-11-06T09:27:40;2.88;;;1.40;;
54261;SDS011;40174;52.364;6.452;2022-11-06T09:30:14;8.95;;;1.00;;
54261;SDS011;40174;52.364;6.452;2022-11-06T09:32:45;2.53;;;1.00;;
54261;SDS011;40174;52.364;6.452;2022-11-06T09:35:13;7.32;;;1.52;;
54261;SDS011;40174;52.364;6.452;2022-11-06T09:37:47;6.68;;;1.45;;
54261;SDS011;40174;52.364;6.452;2022-11-06T09:40:17;2.53;;;1.08;;
54261;SDS011;40174;52.364;6.452;2022-11-06T09:42:56;2.63;;;1.13;;
54261;SDS011;40174;52.364;6.452;2022-11-06T09:45:30;5.72;;;1.50;;
54261;SDS011;40174;52.364;6.452;2022-11-06T09:47:59;5.15;;;1.15;;
54261;SDS011;40174;52.364;6.452;2022-11-06T09:50:37;7.90;;;1.35;;
54261;SDS011;40174;52.364;6.452;2022-11-06T09:53:12;6.60;;;1.10;;
54261;SDS011;40174;52.364;6.452;2022-11-06T09:55:45;3.60;;;1.00;;
54261;SDS011;40174;52.364;6.452;2022-11-06T09:58:14;3.92;;;1.00;;
54261;SDS011;40174;52.364;6.452;2022-11-06T10:00:43;4.50;;;1.05;;
54261;SDS011;40174;52.364;6.452;2022-11-06T10:03:12;2.53;;;0.77;;
54261;SDS011;40174;52.364;6.452;2022-11-06T10:05:43;1.23;;;0.57;;
54261;SDS011;40174;52.364;6.452;2022-11-06T10:08:13;5.25;;;0.90;;
54261;SDS011;40174;52.364;6.452;2022-11-06T10:10:44;2.92;;;1.00;;
54261;SDS011;40174;52.364;6.452;2022-11-06T10:13:25;4.63;;;0.80;;
54261;SDS011;40174;52.364;6.452;2022-11-06T10:18:39;4.03;;;1.00;;
54261;SDS011;40174;52.364;6.452;2022-11-06T10:21:18;4.63;;;0.95;;
54261;SDS011;40174;52.364;6.452;2022-11-06T10:23:51;4.97;;;0.93;;
54261;SDS011;40174;52.364;6.452;2022-11-06T10:26:24;4.18;;;1.17;;
54261;SDS011;40174;52.364;6.452;2022-11-06T10:29:10;2.70;;;0.80;;
54261;SDS011;40174;52.364;6.452;2022-11-06T10:31:45;6.68;;;0.73;;
54261;SDS011;40174;52.364;6.452;2022-11-06T10:34:22;3.03;;;1.08;;
54261;SDS011;40174;52.364;6.452;2022-11-06T10:36:53;6.07;;;1.42;;
54261;SDS011;40174;52.364;6.452;2022-11-06T10:39:27;6.07;;;0.98;;
54261;SDS011;40174;52.364;6.452;2022-11-06T10:41:57;2.67;;;0.88;;
54261;SDS011;40174;52.364;6.452;2022-11-06T10:44:28;3.20;;;0.70;;
54261;SDS011;40174;52.364;6.452;2022-11-06T10:47:02;3.95;;;0.82;;
54261;SDS011;40174;52.364;6.452;2022-11-06T10:49:34;2.80;;;0.80;;
54261;SDS011;40174;52.364;6.452;2022-11-06T10:55:13;5.90;;;0.77;;
54261;SDS011;40174;52.364;6.452;2022-11-06T10:58:00;3.42;;;0.93;;
54261;SDS011;40174;52.364;6.452;2022-11-06T11:00:28;4.68;;;1.00;;
54261;SDS011;40174;52.364;6.452;2022-11-06T11:02:57;6.30;;;0.90;;
54261;SDS011;40174;52.364;6.452;2022-11-06T11:05:38;2.83;;;0.85;;
54261;SDS011;40174;52.364;6.452;2022-11-06T11:08:06;7.50;;;1.20;;
54261;SDS011;40174;52.364;6.452;2022-11-06T11:11:01;1.40;;;0.70;;
54261;SDS011;40174;52.364;6.452;2022-11-06T11:13:30;4.63;;;0.80;;
54261;SDS011;40174;52.364;6.452;2022-11-06T11:15:57;3.33;;;0.93;;
54261;SDS011;40174;52.364;6.452;2022-11-06T11:18:25;3.63;;;0.80;;
54261;SDS011;40174;52.364;6.452;2022-11-06T11:21:03;2.78;;;0.93;;
54261;SDS011;40174;52.364;6.452;2022-11-06T11:23:32;2.90;;;0.60;;
54261;SDS011;40174;52.364;6.452;2022-11-06T11:26:18;1.75;;;0.70;;
54261;SDS011;40174;52.364;6.452;2022-11-06T11:28:49;4.47;;;0.73;;
54261;SDS011;40174;52.364;6.452;2022-11-06T11:31:18;5.65;;;1.00;;
54261;SDS011;40174;52.364;6.452;2022-11-06T11:33:47;4.18;;;0.90;;
54261;SDS011;40174;52.364;6.452;2022-11-06T11:36:16;3.55;;;0.90;;
54261;SDS011;40174;52.364;6.452;2022-11-06T11:38:43;5.90;;;1.02;;
54261;SDS011;40174;52.364;6.452;2022-11-06T11:41:12;5.75;;;0.90;;
54261;SDS011;40174;52.364;6.452;2022-11-06T11:43:54;4.43;;;0.88;;
54261;SDS011;40174;52.364;6.452;2022-11-06T11:46:22;5.57;;;0.90;;
54261;SDS011;40174;52.364;6.452;2022-11-06T11:48:49;2.05;;;0.80;;
54261;SDS011;40174;52.364;6.452;2022-11-06T11:51:23;2.97;;;0.70;;
54261;SDS011;40174;52.364;6.452;2022-11-06T11:53:53;3.22;;;0.80;;
54261;SDS011;40174;52.364;6.452;2022-11-06T11:56:23;2.70;;;0.75;;
54261;SDS011;40174;52.364;6.452;2022-11-06T11:58:53;3.28;;;0.98;;
54261;SDS011;40174;52.364;6.452;2022-11-06T12:01:29;4.22;;;0.73;;
54261;SDS011;40174;52.364;6.452;2022-11-06T12:03:59;5.25;;;0.75;;
54261;SDS011;40174;52.364;6.452;2022-11-06T12:06:27;5.22;;;1.00;;
54261;SDS011;40174;52.364;6.452;2022-11-06T12:08:53;2.90;;;0.80;;
54261;SDS011;40174;52.364;6.452;2022-11-06T12:11:22;2.90;;;0.75;;
54261;SDS011;40174;52.364;6.452;2022-11-06T12:16:52;7.85;;;0.93;;
54261;SDS011;40174;52.364;6.452;2022-11-06T12:19:23;6.80;;;1.05;;
54261;SDS011;40174;52.364;6.452;2022-11-06T12:21:55;3.47;;;0.80;;
54261;SDS011;40174;52.364;6.452;2022-11-06T12:24:24;5.57;;;1.05;;
54261;SDS011;40174;52.364;6.452;2022-11-06T12:26:58;5.55;;;1.00;;
54261;SDS011;40174;52.364;6.452;2022-11-06T12:29:30;4.90;;;0.93;;
54261;SDS011;40174;52.364;6.452;2022-11-06T12:32:01;9.23;;;0.85;;
54261;SDS011;40174;52.364;6.452;2022-11-06T12:34:32;4.93;;;0.77;;
54261;SDS011;40174;52.364;6.452;2022-11-06T12:37:07;4.70;;;0.80;;
54261;SDS011;40174;52.364;6.452;2022-11-06T12:39:42;2.75;;;0.75;;
54261;SDS011;40174;52.364;6.452;2022-11-06T12:42:16;6.65;;;1.52;;
54261;SDS011;40174;52.364;6.452;2022-11-06T12:44:46;3.22;;;0.80;;
54261;SDS011;40174;52.364;6.452;2022-11-06T12:47:13;4.07;;;0.98;;
54261;SDS011;40174;52.364;6.452;2022-11-06T12:50:11;1.83;;;0.63;;
54261;SDS011;40174;52.364;6.452;2022-11-06T12:52:53;3.13;;;1.13;;
54261;SDS011;40174;52.364;6.452;2022-11-06T12:55:33;1.38;;;0.60;;
54261;SDS011;40174;52.364;6.452;2022-11-06T12:58:12;5.45;;;1.08;;
54261;SDS011;40174;52.364;6.452;2022-11-06T13:00:55;3.85;;;0.70;;
54261;SDS011;40174;52.364;6.452;2022-11-06T13:03:32;2.75;;;0.82;;
54261;SDS011;40174;52.364;6.452;2022-11-06T13:06:19;3.20;;;0.70;;
54261;SDS011;40174;52.364;6.452;2022-11-06T13:08:55;1.98;;;0.60;;
54261;SDS011;40174;52.364;6.452;2022-11-06T13:11:32;2.17;;;0.90;;
54261;SDS011;40174;52.364;6.452;2022-11-06T13:14:12;4.57;;;1.00;;
54261;SDS011;40174;52.364;6.452;2022-11-06T13:16:48;3.78;;;0.68;;
54261;SDS011;40174;52.364;6.452;2022-11-06T13:19:26;2.58;;;0.60;;
54261;SDS011;40174;52.364;6.452;2022-11-06T13:22:01;6.40;;;0.90;;
54261;SDS011;40174;52.364;6.452;2022-11-06T13:24:38;1.90;;;0.57;;
54261;SDS011;40174;52.364;6.452;2022-11-06T13:27:12;3.08;;;0.80;;
54261;SDS011;40174;52.364;6.452;2022-11-06T13:29:49;5.32;;;1.10;;
54261;SDS011;40174;52.364;6.452;2022-11-06T13:32:18;3.75;;;1.27;;
54261;SDS011;40174;52.364;6.452;2022-11-06T13:34:48;5.20;;;1.15;;
54261;SDS011;40174;52.364;6.452;2022-11-06T13:37:18;7.20;;;0.90;;
54261;SDS011;40174;52.364;6.452;2022-11-06T13:39:49;3.70;;;1.33;;
54261;SDS011;40174;52.364;6.452;2022-11-06T13:42:22;1.50;;;0.60;;
54261;SDS011;40174;52.364;6.452;2022-11-06T13:44:55;3.40;;;1.20;;
54261;SDS011;40174;52.364;6.452;2022-11-06T13:47:25;4.60;;;1.27;;
54261;SDS011;40174;52.364;6.452;2022-11-06T13:49:59;5.45;;;1.48;;
54261;SDS011;40174;52.364;6.452;2022-11-06T13:52:33;3.47;;;1.00;;
54261;SDS011;40174;52.364;6.452;2022-11-06T13:55:08;6.30;;;1.55;;
54261;SDS011;40174;52.364;6.452;2022-11-06T13:57:47;3.10;;;1.08;;
54261;SDS011;40174;52.364;6.452;2022-11-06T14:00:47;4.35;;;1.17;;
54261;SDS011;40174;52.364;6.452;2022-11-06T14:03:40;5.70;;;1.42;;
54261;SDS011;40174;52.364;6.452;2022-11-06T14:06:20;7.57;;;1.55;;
54261;SDS011;40174;52.364;6.452;2022-11-06T14:08:50;4.65;;;1.50;;
54261;SDS011;40174;52.364;6.452;2022-11-06T14:11:24;6.03;;;1.52;;
54261;SDS011;40174;52.364;6.452;2022-11-06T14:13:56;8.00;;;1.95;;
54261;SDS011;40174;52.364;6.452;2022-11-06T14:16:28;9.13;;;2.03;;
54261;SDS011;40174;52.364;6.452;2022-11-06T14:18:57;5.85;;;1.50;;
54261;SDS011;40174;52.364;6.452;2022-11-06T14:26:56;6.28;;;1.70;;
54261;SDS011;40174;52.364;6.452;2022-11-06T14:32:33;5.30;;;1.60;;
54261;SDS011;40174;52.364;6.452;2022-11-06T14:38:15;4.75;;;1.73;;
54261;SDS011;40174;52.364;6.452;2022-11-06T14:40:44;5.00;;;1.38;;
54261;SDS011;40174;52.364;6.452;2022-11-06T14:43:14;6.80;;;2.05;;
54261;SDS011;40174;52.364;6.452;2022-11-06T14:45:48;9.13;;;2.47;;
54261;SDS011;40174;52.364;6.452;2022-11-06T14:48:25;6.88;;;2.20;;
54261;SDS011;40174;52.364;6.452;2022-11-06T14:50:53;9.65;;;1.80;;
54261;SDS011;40174;52.364;6.452;2022-11-06T14:53:22;3.20;;;1.60;;
54261;SDS011;40174;52.364;6.452;2022-11-06T14:55:57;5.30;;;1.40;;
54261;SDS011;40174;52.364;6.452;2022-11-06T14:58:26;3.53;;;1.10;;
54261;SDS011;40174;52.364;6.452;2022-11-06T15:00:57;7.78;;;1.77;;
54261;SDS011;40174;52.364;6.452;2022-11-06T15:03:34;5.65;;;1.60;;
54261;SDS011;40174;52.364;6.452;2022-11-06T15:06:19;4.38;;;1.73;;
54261;SDS011;40174;52.364;6.452;2022-11-06T15:09:05;6.57;;;1.60;;
54261;SDS011;40174;52.364;6.452;2022-11-06T15:11:53;3.65;;;1.52;;
54261;SDS011;40174;52.364;6.452;2022-11-06T15:17:24;4.20;;;1.40;;
54261;SDS011;40174;52.364;6.452;2022-11-06T15:19:59;4.63;;;1.30;;
54261;SDS011;40174;52.364;6.452;2022-11-06T15:22:32;7.32;;;1.60;;
54261;SDS011;40174;52.364;6.452;2022-11-06T15:25:11;4.05;;;1.17;;
54261;SDS011;40174;52.364;6.452;2022-11-06T15:27:46;2.97;;;1.40;;
54261;SDS011;40174;52.364;6.452;2022-11-06T15:30:20;5.10;;;1.33;;
54261;SDS011;40174;52.364;6.452;2022-11-06T15:32:47;2.45;;;1.13;;
54261;SDS011;40174;52.364;6.452;2022-11-06T15:35:18;3.42;;;1.17;;
54261;SDS011;40174;52.364;6.452;2022-11-06T15:37:49;3.92;;;1.00;;
54261;SDS011;40174;52.364;6.452;2022-11-06T15:40:25;1.95;;;0.73;;
54261;SDS011;40174;52.364;6.452;2022-11-06T15:42:54;4.32;;;0.60;;
54261;SDS011;40174;52.364;6.452;2022-11-06T15:45:23;2.83;;;0.73;;
54261;SDS011;40174;52.364;6.452;2022-11-06T15:47:52;3.40;;;0.52;;